sensor_id;sensor_type;location;lat;lon;timestamp;temperature;humidity
18299;DHT22;9275;48.690;9.686;2024-01-30T00:03:36;-0.30;99.90
18299;DHT22;9275;48.690;9.686;2024-01-30T00:08:40;-0.30;99.90
18299;DHT22;9275;48.690;9.686;2024-01-30T00:13:45;-0.30;99.90
18299;DHT22;9275;48.690;9.686;2024-01-30T00:18:51;-0.30;99.90
18299;DHT22;9275;48.690;9.686;2024-01-30T00:23:56;-0.30;99.90
18299;DHT22;9275;48.690;9.686;2024-01-30T00:29:01;-0.30;99.90
18299;DHT22;9275;48.690;9.686;2024-01-30T00:34:07;-0.30;99.90
18299;DHT22;9275;48.690;9.686;2024-01-30T00:39:12;-0.30;99.90
18299;DHT22;9275;48.690;9.686;2024-01-30T00:44:18;-0.30;99.90
18299;DHT22;9275;48.690;9.686;2024-01-30T00:49:24;-0.30;99.90
18299;DHT22;9275;48.690;9.686;2024-01-30T00:54:29;-0.30;99.90
18299;DHT22;9275;48.690;9.686;2024-01-30T00:59:34;-0.30;99.90
18299;DHT22;9275;48.690;9.686;2024-01-30T01:04:40;-0.30;99.90
18299;DHT22;9275;48.690;9.686;2024-01-30T01:09:45;-0.40;99.90
18299;DHT22;9275;48.690;9.686;2024-01-30T01:14:49;-0.50;99.90
18299;DHT22;9275;48.690;9.686;2024-01-30T01:19:55;-0.50;99.90
18299;DHT22;9275;48.690;9.686;2024-01-30T01:25:00;-0.60;99.90
18299;DHT22;9275;48.690;9.686;2024-01-30T01:30:07;-0.60;99.90
18299;DHT22;9275;48.690;9.686;2024-01-30T01:35:13;-0.50;99.90
18299;DHT22;9275;48.690;9.686;2024-01-30T01:40:18;-0.60;99.90
18299;DHT22;9275;48.690;9.686;2024-01-30T01:45:23;-0.60;99.90
18299;DHT22;9275;48.690;9.686;2024-01-30T01:50:29;-0.60;99.90
18299;DHT22;9275;48.690;9.686;2024-01-30T01:55:35;-0.60;99.90
18299;DHT22;9275;48.690;9.686;2024-01-30T02:00:40;-0.60;99.90
18299;DHT22;9275;48.690;9.686;2024-01-30T02:05:46;-0.70;99.90
18299;DHT22;9275;48.690;9.686;2024-01-30T02:10:51;-0.70;99.90
18299;DHT22;9275;48.690;9.686;2024-01-30T02:15:56;-0.60;99.90
18299;DHT22;9275;48.690;9.686;2024-01-30T02:21:08;-0.70;99.90
18299;DHT22;9275;48.690;9.686;2024-01-30T02:26:13;-0.70;99.90
18299;DHT22;9275;48.690;9.686;2024-01-30T02:31:17;-0.70;99.90
18299;DHT22;9275;48.690;9.686;2024-01-30T02:36:23;-0.70;99.90
18299;DHT22;9275;48.690;9.686;2024-01-30T02:41:28;-0.60;99.90
18299;DHT22;9275;48.690;9.686;2024-01-30T02:46:32;-0.60;99.90
18299;DHT22;9275;48.690;9.686;2024-01-30T02:51:38;-0.70;99.90
18299;DHT22;9275;48.690;9.686;2024-01-30T02:56:43;-0.70;99.90
18299;DHT22;9275;48.690;9.686;2024-01-30T03:01:47;-0.70;99.90
18299;DHT22;9275;48.690;9.686;2024-01-30T03:06:54;-0.60;99.90
18299;DHT22;9275;48.690;9.686;2024-01-30T03:11:58;-0.60;99.90
18299;DHT22;9275;48.690;9.686;2024-01-30T03:17:03;-0.60;99.90
18299;DHT22;9275;48.690;9.686;2024-01-30T03:22:10;-0.70;99.90
18299;DHT22;9275;48.690;9.686;2024-01-30T03:27:14;-0.80;99.90
18299;DHT22;9275;48.690;9.686;2024-01-30T03:32:19;-0.80;99.90
18299;DHT22;9275;48.690;9.686;2024-01-30T03:37:25;-0.80;99.90
18299;DHT22;9275;48.690;9.686;2024-01-30T03:42:30;-0.80;99.90
18299;DHT22;9275;48.690;9.686;2024-01-30T03:47:34;-0.90;99.90
18299;DHT22;9275;48.690;9.686;2024-01-30T03:52:40;-0.80;99.90
18299;DHT22;9275;48.690;9.686;2024-01-30T03:57:45;-0.80;99.90
18299;DHT22;9275;48.690;9.686;2024-01-30T04:02:49;-0.70;99.90
18299;DHT22;9275;48.690;9.686;2024-01-30T04:07:56;-0.70;99.90
18299;DHT22;9275;48.690;9.686;2024-01-30T04:13:00;-0.70;99.90
18299;DHT22;9275;48.690;9.686;2024-01-30T04:18:06;-0.60;99.90
18299;DHT22;9275;48.690;9.686;2024-01-30T04:23:11;-0.60;99.90
18299;DHT22;9275;48.690;9.686;2024-01-30T04:28:16;-0.60;99.90
18299;DHT22;9275;48.690;9.686;2024-01-30T04:33:21;-0.60;99.90
18299;DHT22;9275;48.690;9.686;2024-01-30T04:38:27;-0.50;99.90
18299;DHT22;9275;48.690;9.686;2024-01-30T04:43:31;-0.50;99.90
18299;DHT22;9275;48.690;9.686;2024-01-30T04:48:36;-0.50;99.90
18299;DHT22;9275;48.690;9.686;2024-01-30T04:53:43;-0.50;99.90
18299;DHT22;9275;48.690;9.686;2024-01-30T04:58:47;-0.50;99.90
18299;DHT22;9275;48.690;9.686;2024-01-30T05:03:52;-0.50;99.90
18299;DHT22;9275;48.690;9.686;2024-01-30T05:08:58;-0.40;99.90
18299;DHT22;9275;48.690;9.686;2024-01-30T05:14:02;-0.40;99.90
18299;DHT22;9275;48.690;9.686;2024-01-30T05:19:07;-0.50;99.90
18299;DHT22;9275;48.690;9.686;2024-01-30T05:24:13;-0.60;99.90
18299;DHT22;9275;48.690;9.686;2024-01-30T05:29:18;-0.50;99.90
18299;DHT22;9275;48.690;9.686;2024-01-30T05:34:22;-0.60;99.90
18299;DHT22;9275;48.690;9.686;2024-01-30T05:39:28;-0.60;99.90
18299;DHT22;9275;48.690;9.686;2024-01-30T05:44:35;-0.50;99.90
18299;DHT22;9275;48.690;9.686;2024-01-30T05:49:40;-0.50;99.90
18299;DHT22;9275;48.690;9.686;2024-01-30T05:54:46;-0.50;99.90
18299;DHT22;9275;48.690;9.686;2024-01-30T05:59:51;-0.50;99.90
18299;DHT22;9275;48.690;9.686;2024-01-30T06:04:55;-0.40;99.90
18299;DHT22;9275;48.690;9.686;2024-01-30T06:10:01;-0.40;99.90
18299;DHT22;9275;48.690;9.686;2024-01-30T06:15:07;-0.40;99.90
18299;DHT22;9275;48.690;9.686;2024-01-30T06:20:13;-0.40;99.90
18299;DHT22;9275;48.690;9.686;2024-01-30T06:25:19;-0.40;99.90
18299;DHT22;9275;48.690;9.686;2024-01-30T06:30:23;-0.40;99.90
18299;DHT22;9275;48.690;9.686;2024-01-30T06:35:28;-0.40;99.90
18299;DHT22;9275;48.690;9.686;2024-01-30T06:40:34;-0.40;99.90
18299;DHT22;9275;48.690;9.686;2024-01-30T06:45:39;-0.30;99.90
18299;DHT22;9275;48.690;9.686;2024-01-30T06:50:44;-0.30;99.90
18299;DHT22;9275;48.690;9.686;2024-01-30T06:55:52;-0.30;99.90
18299;DHT22;9275;48.690;9.686;2024-01-30T07:00:57;-0.30;99.90
18299;DHT22;9275;48.690;9.686;2024-01-30T07:06:01;-0.20;99.90
18299;DHT22;9275;48.690;9.686;2024-01-30T07:11:08;-0.20;99.90
18299;DHT22;9275;48.690;9.686;2024-01-30T07:16:12;-0.20;99.90
18299;DHT22;9275;48.690;9.686;2024-01-30T07:21:17;-0.20;99.90
18299;DHT22;9275;48.690;9.686;2024-01-30T07:26:23;-0.20;99.90
18299;DHT22;9275;48.690;9.686;2024-01-30T07:31:28;-0.30;99.90
18299;DHT22;9275;48.690;9.686;2024-01-30T07:36:35;-0.20;99.90
18299;DHT22;9275;48.690;9.686;2024-01-30T07:41:42;-0.20;99.90
18299;DHT22;9275;48.690;9.686;2024-01-30T07:46:47;-0.20;99.90
18299;DHT22;9275;48.690;9.686;2024-01-30T07:51:52;-0.10;99.90
18299;DHT22;9275;48.690;9.686;2024-01-30T07:56:58;-0.10;99.90
18299;DHT22;9275;48.690;9.686;2024-01-30T08:02:03;-0.10;99.90
18299;DHT22;9275;48.690;9.686;2024-01-30T08:07:07;0.00;99.90
18299;DHT22;9275;48.690;9.686;2024-01-30T08:12:13;0.10;99.90
18299;DHT22;9275;48.690;9.686;2024-01-30T08:17:18;0.10;99.90
18299;DHT22;9275;48.690;9.686;2024-01-30T08:22:22;0.20;99.90
18299;DHT22;9275;48.690;9.686;2024-01-30T08:27:28;0.20;99.90
18299;DHT22;9275;48.690;9.686;2024-01-30T08:32:33;0.30;99.90
18299;DHT22;9275;48.690;9.686;2024-01-30T08:37:38;0.30;99.90
18299;DHT22;9275;48.690;9.686;2024-01-30T08:42:44;0.40;99.90
18299;DHT22;9275;48.690;9.686;2024-01-30T08:47:48;0.50;99.90
18299;DHT22;9275;48.690;9.686;2024-01-30T08:52:53;0.60;99.90
18299;DHT22;9275;48.690;9.686;2024-01-30T08:57:59;0.60;99.90
18299;DHT22;9275;48.690;9.686;2024-01-30T09:03:04;0.70;99.90
18299;DHT22;9275;48.690;9.686;2024-01-30T09:08:09;0.80;99.90
18299;DHT22;9275;48.690;9.686;2024-01-30T09:13:14;0.80;99.90
18299;DHT22;9275;48.690;9.686;2024-01-30T09:18:19;0.90;99.90
18299;DHT22;9275;48.690;9.686;2024-01-30T09:23:24;1.00;99.90
18299;DHT22;9275;48.690;9.686;2024-01-30T09:28:30;1.00;99.90
18299;DHT22;9275;48.690;9.686;2024-01-30T09:33:34;1.10;99.90
18299;DHT22;9275;48.690;9.686;2024-01-30T09:38:39;1.20;99.90
18299;DHT22;9275;48.690;9.686;2024-01-30T09:43:48;1.20;99.90
18299;DHT22;9275;48.690;9.686;2024-01-30T09:48:53;1.20;99.90
18299;DHT22;9275;48.690;9.686;2024-01-30T09:53:58;1.30;99.90
18299;DHT22;9275;48.690;9.686;2024-01-30T09:59:04;1.30;99.90
18299;DHT22;9275;48.690;9.686;2024-01-30T10:04:08;1.40;99.90
18299;DHT22;9275;48.690;9.686;2024-01-30T10:09:13;1.50;99.90
18299;DHT22;9275;48.690;9.686;2024-01-30T10:14:19;1.50;99.90
18299;DHT22;9275;48.690;9.686;2024-01-30T10:19:24;1.50;99.90
18299;DHT22;9275;48.690;9.686;2024-01-30T10:24:30;1.50;99.90
18299;DHT22;9275;48.690;9.686;2024-01-30T10:29:37;1.50;99.90
18299;DHT22;9275;48.690;9.686;2024-01-30T10:34:42;1.60;99.90
18299;DHT22;9275;48.690;9.686;2024-01-30T10:39:47;1.60;99.90
18299;DHT22;9275;48.690;9.686;2024-01-30T10:44:57;1.60;99.90
18299;DHT22;9275;48.690;9.686;2024-01-30T10:50:04;1.60;99.90
18299;DHT22;9275;48.690;9.686;2024-01-30T10:55:11;1.60;99.90
18299;DHT22;9275;48.690;9.686;2024-01-30T11:00:18;1.70;99.90
18299;DHT22;9275;48.690;9.686;2024-01-30T11:05:28;1.80;99.90
18299;DHT22;9275;48.690;9.686;2024-01-30T11:10:45;1.90;99.90
18299;DHT22;9275;48.690;9.686;2024-01-30T11:15:51;1.90;99.90
18299;DHT22;9275;48.690;9.686;2024-01-30T11:20:56;2.00;99.90
18299;DHT22;9275;48.690;9.686;2024-01-30T11:26:01;2.00;99.90
18299;DHT22;9275;48.690;9.686;2024-01-30T11:31:07;2.00;99.90
18299;DHT22;9275;48.690;9.686;2024-01-30T11:36:13;2.10;99.90
18299;DHT22;9275;48.690;9.686;2024-01-30T11:41:20;2.20;99.90
18299;DHT22;9275;48.690;9.686;2024-01-30T11:46:26;2.20;99.90
18299;DHT22;9275;48.690;9.686;2024-01-30T11:51:31;2.20;99.90
18299;DHT22;9275;48.690;9.686;2024-01-30T11:56:37;2.20;99.90
18299;DHT22;9275;48.690;9.686;2024-01-30T12:01:43;2.30;99.90
18299;DHT22;9275;48.690;9.686;2024-01-30T12:06:51;2.30;99.90
18299;DHT22;9275;48.690;9.686;2024-01-30T12:11:55;2.30;99.90
18299;DHT22;9275;48.690;9.686;2024-01-30T12:17:01;2.40;99.90
18299;DHT22;9275;48.690;9.686;2024-01-30T12:22:06;2.40;99.90
18299;DHT22;9275;48.690;9.686;2024-01-30T12:27:10;2.50;99.90
18299;DHT22;9275;48.690;9.686;2024-01-30T12:32:17;2.50;99.90
18299;DHT22;9275;48.690;9.686;2024-01-30T12:37:21;2.50;99.90
18299;DHT22;9275;48.690;9.686;2024-01-30T12:42:27;2.60;99.90
18299;DHT22;9275;48.690;9.686;2024-01-30T12:47:33;2.60;99.90
18299;DHT22;9275;48.690;9.686;2024-01-30T12:52:38;2.60;99.90
18299;DHT22;9275;48.690;9.686;2024-01-30T12:57:42;2.60;99.90
18299;DHT22;9275;48.690;9.686;2024-01-30T13:02:49;2.60;99.90
18299;DHT22;9275;48.690;9.686;2024-01-30T13:07:53;2.70;99.90
18299;DHT22;9275;48.690;9.686;2024-01-30T13:13:00;2.60;99.90
18299;DHT22;9275;48.690;9.686;2024-01-30T13:18:07;2.60;99.90
18299;DHT22;9275;48.690;9.686;2024-01-30T13:23:11;2.60;99.90
18299;DHT22;9275;48.690;9.686;2024-01-30T13:28:16;2.60;99.90
18299;DHT22;9275;48.690;9.686;2024-01-30T13:33:22;2.50;99.90
18299;DHT22;9275;48.690;9.686;2024-01-30T13:38:28;2.50;99.90
18299;DHT22;9275;48.690;9.686;2024-01-30T13:43:33;2.50;99.90
18299;DHT22;9275;48.690;9.686;2024-01-30T13:48:39;2.60;99.90
18299;DHT22;9275;48.690;9.686;2024-01-30T13:53:43;2.60;99.90
18299;DHT22;9275;48.690;9.686;2024-01-30T13:58:48;2.60;99.90
18299;DHT22;9275;48.690;9.686;2024-01-30T14:03:55;2.50;99.90
18299;DHT22;9275;48.690;9.686;2024-01-30T14:08:59;2.50;99.90
18299;DHT22;9275;48.690;9.686;2024-01-30T14:14:10;2.50;99.90
18299;DHT22;9275;48.690;9.686;2024-01-30T14:19:16;2.40;99.90
18299;DHT22;9275;48.690;9.686;2024-01-30T14:24:21;2.40;99.90
18299;DHT22;9275;48.690;9.686;2024-01-30T14:29:25;2.30;99.90
18299;DHT22;9275;48.690;9.686;2024-01-30T14:34:31;2.30;99.90
18299;DHT22;9275;48.690;9.686;2024-01-30T14:39:36;2.30;99.90
18299;DHT22;9275;48.690;9.686;2024-01-30T14:44:42;2.30;99.90
18299;DHT22;9275;48.690;9.686;2024-01-30T14:49:48;2.20;99.90
18299;DHT22;9275;48.690;9.686;2024-01-30T14:54:53;2.00;99.90
18299;DHT22;9275;48.690;9.686;2024-01-30T14:59:58;1.90;99.90
18299;DHT22;9275;48.690;9.686;2024-01-30T15:05:05;1.90;99.90
18299;DHT22;9275;48.690;9.686;2024-01-30T15:10:09;2.10;99.90
18299;DHT22;9275;48.690;9.686;2024-01-30T15:15:14;2.00;99.90
18299;DHT22;9275;48.690;9.686;2024-01-30T15:20:20;2.00;99.90
18299;DHT22;9275;48.690;9.686;2024-01-30T15:25:24;2.00;99.90
18299;DHT22;9275;48.690;9.686;2024-01-30T15:30:29;2.10;99.90
18299;DHT22;9275;48.690;9.686;2024-01-30T15:35:35;2.10;99.90
18299;DHT22;9275;48.690;9.686;2024-01-30T15:40:41;2.10;99.90
18299;DHT22;9275;48.690;9.686;2024-01-30T15:45:45;2.00;99.90
18299;DHT22;9275;48.690;9.686;2024-01-30T15:50:52;2.00;99.90
18299;DHT22;9275;48.690;9.686;2024-01-30T15:55:56;2.00;99.90
18299;DHT22;9275;48.690;9.686;2024-01-30T16:01:01;2.00;99.90
18299;DHT22;9275;48.690;9.686;2024-01-30T16:06:07;2.00;99.90
18299;DHT22;9275;48.690;9.686;2024-01-30T16:11:12;2.00;99.90
18299;DHT22;9275;48.690;9.686;2024-01-30T16:16:17;2.10;99.90
18299;DHT22;9275;48.690;9.686;2024-01-30T16:21:23;2.10;99.90
18299;DHT22;9275;48.690;9.686;2024-01-30T16:26:28;2.10;99.90
18299;DHT22;9275;48.690;9.686;2024-01-30T16:31:32;2.10;99.90
18299;DHT22;9275;48.690;9.686;2024-01-30T16:36:38;2.10;99.90
18299;DHT22;9275;48.690;9.686;2024-01-30T16:41:46;2.00;99.90
18299;DHT22;9275;48.690;9.686;2024-01-30T16:46:51;2.10;99.90
18299;DHT22;9275;48.690;9.686;2024-01-30T16:51:57;2.00;99.90
18299;DHT22;9275;48.690;9.686;2024-01-30T16:57:04;2.00;99.90
18299;DHT22;9275;48.690;9.686;2024-01-30T17:02:09;2.00;99.90
18299;DHT22;9275;48.690;9.686;2024-01-30T17:07:15;2.00;99.90
18299;DHT22;9275;48.690;9.686;2024-01-30T17:12:19;2.00;99.90
18299;DHT22;9275;48.690;9.686;2024-01-30T17:17:24;2.00;99.90
18299;DHT22;9275;48.690;9.686;2024-01-30T17:22:30;2.00;99.90
18299;DHT22;9275;48.690;9.686;2024-01-30T17:27:34;2.00;99.90
18299;DHT22;9275;48.690;9.686;2024-01-30T17:32:39;2.00;99.90
18299;DHT22;9275;48.690;9.686;2024-01-30T17:37:45;2.00;99.90
18299;DHT22;9275;48.690;9.686;2024-01-30T17:42:49;2.00;99.90
18299;DHT22;9275;48.690;9.686;2024-01-30T17:47:54;2.00;99.90
18299;DHT22;9275;48.690;9.686;2024-01-30T17:53:00;2.00;99.90
18299;DHT22;9275;48.690;9.686;2024-01-30T17:58:04;2.00;99.90
18299;DHT22;9275;48.690;9.686;2024-01-30T18:03:09;2.00;99.90
18299;DHT22;9275;48.690;9.686;2024-01-30T18:08:15;2.00;99.90
18299;DHT22;9275;48.690;9.686;2024-01-30T18:13:20;2.00;99.90
18299;DHT22;9275;48.690;9.686;2024-01-30T18:18:24;2.00;99.90
18299;DHT22;9275;48.690;9.686;2024-01-30T18:23:34;2.00;99.90
18299;DHT22;9275;48.690;9.686;2024-01-30T18:28:39;2.00;99.90
18299;DHT22;9275;48.690;9.686;2024-01-30T18:33:43;2.00;99.90
18299;DHT22;9275;48.690;9.686;2024-01-30T18:38:56;2.00;99.90
18299;DHT22;9275;48.690;9.686;2024-01-30T18:44:00;2.00;99.90
18299;DHT22;9275;48.690;9.686;2024-01-30T18:49:05;2.00;99.90
18299;DHT22;9275;48.690;9.686;2024-01-30T18:54:11;2.00;99.90
18299;DHT22;9275;48.690;9.686;2024-01-30T18:59:15;2.10;99.90
18299;DHT22;9275;48.690;9.686;2024-01-30T19:04:21;2.10;99.90
18299;DHT22;9275;48.690;9.686;2024-01-30T19:09:27;2.00;99.90
18299;DHT22;9275;48.690;9.686;2024-01-30T19:14:31;1.90;99.90
18299;DHT22;9275;48.690;9.686;2024-01-30T19:19:37;2.00;99.90
18299;DHT22;9275;48.690;9.686;2024-01-30T19:24:44;2.00;99.90
18299;DHT22;9275;48.690;9.686;2024-01-30T19:29:49;2.00;99.90
18299;DHT22;9275;48.690;9.686;2024-01-30T19:34:54;2.00;99.90
18299;DHT22;9275;48.690;9.686;2024-01-30T19:40:00;2.00;99.90
18299;DHT22;9275;48.690;9.686;2024-01-30T19:45:07;2.00;99.90
18299;DHT22;9275;48.690;9.686;2024-01-30T19:50:13;2.00;99.90
18299;DHT22;9275;48.690;9.686;2024-01-30T19:55:19;2.00;99.90
18299;DHT22;9275;48.690;9.686;2024-01-30T20:00:26;2.00;99.90
18299;DHT22;9275;48.690;9.686;2024-01-30T20:05:31;2.00;99.90
18299;DHT22;9275;48.690;9.686;2024-01-30T20:10:38;1.90;99.90
18299;DHT22;9275;48.690;9.686;2024-01-30T20:15:43;1.90;99.90
18299;DHT22;9275;48.690;9.686;2024-01-30T20:20:47;1.90;99.90
18299;DHT22;9275;48.690;9.686;2024-01-30T20:25:53;2.00;99.90
18299;DHT22;9275;48.690;9.686;2024-01-30T20:31:00;2.00;99.90
18299;DHT22;9275;48.690;9.686;2024-01-30T20:36:06;2.00;99.90
18299;DHT22;9275;48.690;9.686;2024-01-30T20:41:12;2.00;99.90
18299;DHT22;9275;48.690;9.686;2024-01-30T20:46:17;2.00;99.90
18299;DHT22;9275;48.690;9.686;2024-01-30T20:51:22;1.90;99.90
18299;DHT22;9275;48.690;9.686;2024-01-30T20:56:28;1.90;99.90
18299;DHT22;9275;48.690;9.686;2024-01-30T21:01:33;2.00;99.90
18299;DHT22;9275;48.690;9.686;2024-01-30T21:06:38;2.00;99.90
18299;DHT22;9275;48.690;9.686;2024-01-30T21:11:44;2.00;99.90
18299;DHT22;9275;48.690;9.686;2024-01-30T21:16:48;2.10;99.90
18299;DHT22;9275;48.690;9.686;2024-01-30T21:21:53;2.10;99.90
18299;DHT22;9275;48.690;9.686;2024-01-30T21:26:59;2.00;99.90
18299;DHT22;9275;48.690;9.686;2024-01-30T21:32:05;2.00;99.90
18299;DHT22;9275;48.690;9.686;2024-01-30T21:37:09;2.00;99.90
18299;DHT22;9275;48.690;9.686;2024-01-30T21:42:16;2.00;99.90
18299;DHT22;9275;48.690;9.686;2024-01-30T21:47:21;2.00;99.90
18299;DHT22;9275;48.690;9.686;2024-01-30T21:52:25;2.00;99.90
18299;DHT22;9275;48.690;9.686;2024-01-30T21:57:31;2.00;99.90
18299;DHT22;9275;48.690;9.686;2024-01-30T22:02:37;2.00;99.90
18299;DHT22;9275;48.690;9.686;2024-01-30T22:07:41;2.00;99.90
18299;DHT22;9275;48.690;9.686;2024-01-30T22:12:47;2.00;99.90
18299;DHT22;9275;48.690;9.686;2024-01-30T22:17:52;2.00;99.90
18299;DHT22;9275;48.690;9.686;2024-01-30T22:22:56;2.00;99.90
18299;DHT22;9275;48.690;9.686;2024-01-30T22:28:02;2.00;99.90
18299;DHT22;9275;48.690;9.686;2024-01-30T22:33:07;1.90;99.90
18299;DHT22;9275;48.690;9.686;2024-01-30T22:38:13;1.90;99.90
18299;DHT22;9275;48.690;9.686;2024-01-30T22:43:19;1.90;99.90
18299;DHT22;9275;48.690;9.686;2024-01-30T22:48:24;2.00;99.90
18299;DHT22;9275;48.690;9.686;2024-01-30T22:53:28;2.10;99.90
18299;DHT22;9275;48.690;9.686;2024-01-30T22:58:34;2.00;99.90
18299;DHT22;9275;48.690;9.686;2024-01-30T23:03:39;2.10;99.90
18299;DHT22;9275;48.690;9.686;2024-01-30T23:08:43;2.00;99.90
18299;DHT22;9275;48.690;9.686;2024-01-30T23:13:49;2.00;99.90
18299;DHT22;9275;48.690;9.686;2024-01-30T23:18:54;2.00;99.90
18299;DHT22;9275;48.690;9.686;2024-01-30T23:23:58;1.90;99.90
18299;DHT22;9275;48.690;9.686;2024-01-30T23:29:04;1.90;99.90
18299;DHT22;9275;48.690;9.686;2024-01-30T23:34:09;1.90;99.90
18299;DHT22;9275;48.690;9.686;2024-01-30T23:39:14;1.90;99.90
18299;DHT22;9275;48.690;9.686;2024-01-30T23:44:20;1.90;99.90
18299;DHT22;9275;48.690;9.686;2024-01-30T23:49:25;1.90;99.90
18299;DHT22;9275;48.690;9.686;2024-01-30T23:54:29;1.90;99.90
18299;DHT22;9275;48.690;9.686;2024-01-30T23:59:35;1.90;99.90
